createdAt,value
2022-07-25T00:01:31.516Z,4.10
2022-07-25T00:07:03.254Z,2.22
2022-07-25T00:12:34.953Z,2.03
2022-07-25T00:18:11.017Z,3.58
2022-07-25T00:23:43.602Z,2.42
2022-07-25T00:29:15.097Z,1.63
2022-07-25T00:34:48.495Z,2.72
2022-07-25T00:39:55.183Z,1.70
2022-07-25T00:45:26.961Z,4.25
2022-07-25T00:51:00.773Z,4.20
2022-07-25T00:56:59.168Z,1.65
2022-07-25T01:02:33.651Z,4.20
2022-07-25T01:08:07.438Z,2.72
2022-07-25T01:14:09.688Z,1.98
2022-07-25T01:19:21.108Z,3.33
2022-07-25T01:25:01.008Z,5.28
2022-07-25T01:30:16.686Z,3.20
2022-07-25T01:35:49.375Z,6.47
2022-07-25T01:41:22.942Z,3.78
2022-07-25T01:46:36.777Z,2.70
2022-07-25T01:51:43.870Z,4.97
2022-07-25T01:57:17.699Z,6.45
2022-07-25T02:02:25.292Z,2.22
2022-07-25T02:07:57.469Z,1.92
2022-07-25T02:13:05.811Z,1.90
2022-07-25T02:18:57.280Z,3.40
2022-07-25T02:24:04.769Z,2.67
2022-07-25T02:29:14.934Z,3.10
2022-07-25T02:34:47.119Z,2.50
2022-07-25T02:40:19.008Z,4.82
2022-07-25T02:45:27.611Z,2.30
2022-07-25T02:50:34.868Z,3.17
2022-07-25T02:55:42.240Z,2.55
2022-07-25T03:01:16.118Z,2.25
2022-07-25T03:06:48.391Z,5.72
2022-07-25T03:12:20.739Z,2.50
2022-07-25T03:17:53.753Z,0.95
2022-07-25T03:23:27.589Z,1.42
2022-07-25T03:28:59.627Z,1.75
2022-07-25T03:34:08.670Z,1.35
2022-07-25T03:39:16.285Z,2.25
2022-07-25T03:44:27.014Z,3.20
2022-07-25T03:50:01.851Z,4.30
2022-07-25T03:55:35.140Z,1.55
2022-07-25T04:01:07.781Z,4.28
2022-07-25T04:06:45.163Z,4.45
2022-07-25T04:11:56.048Z,3.88
2022-07-25T04:17:06.699Z,3.78
2022-07-25T04:22:44.807Z,2.88
2022-07-25T04:28:18.585Z,5.28
2022-07-25T04:33:31.114Z,2.35
2022-07-25T04:39:04.019Z,3.40
2022-07-25T04:44:35.478Z,4.45
2022-07-25T04:50:08.547Z,5.47
2022-07-25T04:55:21.819Z,5.72
2022-07-25T05:00:53.727Z,7.38
2022-07-25T05:06:25.375Z,9.07
2022-07-25T05:11:58.775Z,7.00
2022-07-25T05:17:05.952Z,4.43
2022-07-25T05:22:17.186Z,4.75
2022-07-25T05:27:55.112Z,6.25
2022-07-25T05:33:08.352Z,7.15
2022-07-25T05:38:40.741Z,4.00
2022-07-25T05:44:13.757Z,5.28
2022-07-25T05:49:46.134Z,4.15
2022-07-25T05:55:18.028Z,7.38
2022-07-25T06:00:26.741Z,7.13
2022-07-25T06:05:34.036Z,3.47
2022-07-25T06:11:06.424Z,6.28
2022-07-25T06:16:41.228Z,4.00
2022-07-25T06:22:14.553Z,4.63
2022-07-25T06:27:26.121Z,4.45
2022-07-25T06:32:43.128Z,3.88
2022-07-25T06:37:51.057Z,3.15
2022-07-25T06:43:04.270Z,5.90
2022-07-25T06:48:13.228Z,5.15
2022-07-25T06:53:20.454Z,2.92
2022-07-25T06:58:33.156Z,2.67
2022-07-25T07:04:06.519Z,3.80
2022-07-25T07:09:40.493Z,3.08
2022-07-25T07:15:17.948Z,5.72
2022-07-25T07:20:52.070Z,2.30
2022-07-25T07:26:23.662Z,2.75
2022-07-25T07:31:55.496Z,2.28
2022-07-25T07:37:31.637Z,3.63
2022-07-25T07:43:06.760Z,2.30
2022-07-25T07:48:13.136Z,2.42
2022-07-25T07:53:47.341Z,2.67
2022-07-25T07:59:18.739Z,2.17
2022-07-25T08:04:50.371Z,4.47
2022-07-25T08:10:25.472Z,2.15
2022-07-25T08:16:21.072Z,2.70
2022-07-25T08:21:33.224Z,1.98
2022-07-25T08:26:46.183Z,3.15
2022-07-25T08:31:53.210Z,3.40
2022-07-25T08:36:59.855Z,2.25
2022-07-25T08:42:34.842Z,2.85
2022-07-25T08:47:41.923Z,2.10
2022-07-25T08:52:50.979Z,2.03
2022-07-25T08:58:29.079Z,3.15
2022-07-25T09:03:41.283Z,2.50
2022-07-25T09:09:12.610Z,2.67
2022-07-25T09:14:46.014Z,2.72
2022-07-25T09:20:18.656Z,1.55
2022-07-25T09:25:30.391Z,4.35
2022-07-25T09:31:05.523Z,3.70
2022-07-25T09:36:17.099Z,2.55
2022-07-25T09:41:24.501Z,1.50
2022-07-25T09:46:57.002Z,1.83
2022-07-25T09:52:06.534Z,2.08
2022-07-25T09:57:14.062Z,4.00
2022-07-25T10:03:03.473Z,1.40
2022-07-25T10:08:15.110Z,1.42
2022-07-25T10:13:46.887Z,1.67
2022-07-25T10:19:37.755Z,1.60
2022-07-25T10:25:15.987Z,2.50
2022-07-25T10:30:48.145Z,2.38
2022-07-25T10:36:06.997Z,2.95
2022-07-25T10:41:41.868Z,2.80
2022-07-25T10:47:15.604Z,2.67
2022-07-25T10:52:59.370Z,2.13
2022-07-25T10:58:18.547Z,1.88
2022-07-25T11:03:52.271Z,1.50
2022-07-25T11:09:27.767Z,3.05
2022-07-25T11:15:03.804Z,1.67
2022-07-25T11:20:35.764Z,2.53
2022-07-25T11:25:44.113Z,1.20
2022-07-25T11:30:54.999Z,1.95
2022-07-25T11:36:02.293Z,1.85
2022-07-25T11:41:11.737Z,3.55
2022-07-25T11:47:08.436Z,1.60
2022-07-25T11:52:39.859Z,3.70
2022-07-25T11:57:50.432Z,1.92
2022-07-25T12:03:07.965Z,2.38
2022-07-25T12:08:17.228Z,1.07
2022-07-25T12:13:29.049Z,1.23
2022-07-25T12:19:00.617Z,2.42
2022-07-25T12:24:32.416Z,1.27
2022-07-25T12:30:06.345Z,1.63
2022-07-25T12:35:14.777Z,1.25
2022-07-25T12:45:31.250Z,1.52
2022-07-25T12:51:03.285Z,1.73
2022-07-25T12:56:35.064Z,1.13
2022-07-25T13:02:09.856Z,1.33
2022-07-25T13:07:17.378Z,1.30
2022-07-25T13:12:25.626Z,1.37
2022-07-25T13:17:34.604Z,1.92
2022-07-25T13:23:09.950Z,1.02
2022-07-25T13:28:41.308Z,1.67
2022-07-25T13:33:54.348Z,2.35
2022-07-25T13:39:28.583Z,0.85
2022-07-25T13:45:00.324Z,1.25
2022-07-25T13:50:33.961Z,2.13
2022-07-25T13:56:05.960Z,2.25
2022-07-25T14:01:37.923Z,2.72
2022-07-25T14:07:11.009Z,2.17
2022-07-25T14:12:42.625Z,1.88
2022-07-25T14:17:53.201Z,1.20
2022-07-25T14:23:29.986Z,1.85
2022-07-25T14:29:02.403Z,1.63
2022-07-25T14:34:38.364Z,2.58
2022-07-25T14:39:47.823Z,1.45
2022-07-25T14:44:55.330Z,1.10
2022-07-25T14:50:02.727Z,1.92
2022-07-25T14:55:12.268Z,0.90
2022-07-25T15:01:09.482Z,0.93
2022-07-25T15:06:41.549Z,0.90
2022-07-25T15:11:49.970Z,1.73
2022-07-25T15:17:21.426Z,1.02
2022-07-25T15:22:53.334Z,1.20
2022-07-25T15:28:26.943Z,1.02
2022-07-25T15:33:58.704Z,1.88
2022-07-25T15:39:30.024Z,1.27
2022-07-25T15:45:31.467Z,1.20
2022-07-25T15:50:56.399Z,2.17
2022-07-25T15:56:28.356Z,3.92
2022-07-25T16:01:36.825Z,1.63
2022-07-25T16:07:32.724Z,2.83
2022-07-25T16:12:39.896Z,1.80
2022-07-25T16:18:12.917Z,1.40
2022-07-25T16:24:09.885Z,1.38
2022-07-25T16:29:20.274Z,2.13
2022-07-25T16:34:53.909Z,2.53
2022-07-25T16:40:01.192Z,3.03
2022-07-25T16:45:13.812Z,3.90
2022-07-25T16:50:48.025Z,1.88
2022-07-25T16:55:55.264Z,2.03
2022-07-25T17:01:07.785Z,1.17
2022-07-25T17:06:45.013Z,1.10
2022-07-25T17:12:16.982Z,1.73
2022-07-25T17:17:48.708Z,2.55
2022-07-25T17:23:21.859Z,1.38
2022-07-25T17:28:54.124Z,3.30
2022-07-25T17:34:01.544Z,3.33
2022-07-25T17:39:39.328Z,1.33
2022-07-25T17:44:47.901Z,3.53
2022-07-25T17:49:55.002Z,3.50
2022-07-25T17:55:29.017Z,2.15
2022-07-25T18:01:01.675Z,2.15
2022-07-25T18:06:09.851Z,2.95
2022-07-25T18:11:23.159Z,4.88
2022-07-25T18:16:32.114Z,4.13
2022-07-25T18:21:45.459Z,2.65
2022-07-25T18:27:19.412Z,2.92
2022-07-25T18:32:32.847Z,4.38
2022-07-25T18:38:04.728Z,6.05
2022-07-25T18:43:38.153Z,4.32
2022-07-25T18:48:47.829Z,5.03
2022-07-25T18:53:55.092Z,4.78
2022-07-25T18:59:03.535Z,5.22
2022-07-25T19:04:12.880Z,8.80
2022-07-25T19:09:27.651Z,6.90
2022-07-25T19:14:36.601Z,7.43
2022-07-25T19:20:10.925Z,7.45
2022-07-25T19:25:42.993Z,6.35
2022-07-25T19:30:51.559Z,5.47
2022-07-25T19:36:00.800Z,7.10
2022-07-25T19:41:09.460Z,5.75
2022-07-25T19:46:42.731Z,4.82
2022-07-25T19:52:15.104Z,5.32
2022-07-25T19:57:46.700Z,3.45
2022-07-25T20:02:55.503Z,4.30
2022-07-25T20:08:28.815Z,3.53
2022-07-25T20:14:02.134Z,5.32
2022-07-25T20:19:40.664Z,3.35
2022-07-25T20:25:14.822Z,9.57
2022-07-25T20:30:22.249Z,3.55
2022-07-25T20:35:34.069Z,4.50
2022-07-25T20:40:48.270Z,13.90
2022-07-25T20:46:22.228Z,4.30
2022-07-25T20:51:55.420Z,2.92
2022-07-25T20:57:27.188Z,5.53
2022-07-25T21:02:34.925Z,3.17
2022-07-25T21:07:43.572Z,3.97
2022-07-25T21:18:25.992Z,4.40
2022-07-25T21:23:35.152Z,5.13
2022-07-25T21:29:07.175Z,2.22
2022-07-25T21:35:05.980Z,6.35
2022-07-25T21:40:15.163Z,6.32
2022-07-25T21:45:22.077Z,9.15
2022-07-25T21:50:43.529Z,5.82
2022-07-25T21:56:18.158Z,6.68
2022-07-25T22:01:25.671Z,6.82
2022-07-25T22:06:32.770Z,6.53
2022-07-25T22:11:46.118Z,10.20
2022-07-25T22:16:53.922Z,12.25
2022-07-25T22:22:03.617Z,5.75
2022-07-25T22:28:01.056Z,11.60
2022-07-25T22:33:08.499Z,6.25
2022-07-25T22:38:40.558Z,7.82
2022-07-25T22:43:59.653Z,6.30
2022-07-25T22:49:09.599Z,6.80
2022-07-25T22:54:19.069Z,4.35
2022-07-25T22:59:31.181Z,7.93
2022-07-25T23:05:03.481Z,5.45
2022-07-25T23:10:35.459Z,2.95
2022-07-25T23:16:10.542Z,5.05
2022-07-25T23:21:42.667Z,3.33
2022-07-25T23:27:14.691Z,3.75
2022-07-25T23:32:48.066Z,7.38
2022-07-25T23:38:00.003Z,4.72
2022-07-25T23:43:07.088Z,8.15
2022-07-25T23:48:15.441Z,5.63
2022-07-25T23:53:25.892Z,3.47
2022-07-25T23:59:21.746Z,3.08
